Time;durP1;ratioP1;P1;durP2;ratioP2;P2;SDS_P1;SDS_P2;PMS_P1;PMS_P2;Temp;Humidity;BMP_temperature;BMP_pressure;BME280_temperature;BME280_humidity;BME280_pressure;Samples;Min_cycle;Max_cycle;Signal;HPM_P1;HPM_P2
2022/01/05 00:01:47;;;;;;;5.40;4.20;;;;;;;6.42;69.23;96239.31;110090;1247;59693;-69
2022/01/05 00:04:17;;;;;;;5.90;4.50;;;;;;;6.40;69.32;96240.66;110171;1247;59684;-70
2022/01/05 00:06:46;;;;;;;8.20;5.90;;;;;;;6.36;69.49;96244.70;110150;1247;70862;-68
2022/01/05 00:09:15;;;;;;;7.00;5.40;;;;;;;6.30;70.69;96254.21;110129;1248;67627;-67
2022/01/05 00:11:45;;;;;;;8.10;5.60;;;;;;;6.21;70.70;96250.89;110101;1247;68768;-67
2022/01/05 00:14:14;;;;;;;9.10;6.70;;;;;;;6.12;71.00;96246.56;110274;1247;59767;-69
2022/01/05 00:16:43;;;;;;;8.80;6.00;;;;;;;5.99;71.83;96241.77;110118;1247;59757;-67
2022/01/05 00:19:13;;;;;;;7.50;6.00;;;;;;;5.86;72.19;96239.71;110181;1247;70735;-67
2022/01/05 00:21:42;;;;;;;7.80;5.40;;;;;;;5.76;72.67;96242.06;110156;1247;67677;-67
2022/01/05 00:24:11;;;;;;;8.40;5.70;;;;;;;5.65;73.27;96237.11;110073;1247;69449;-67
2022/01/05 00:26:40;;;;;;;6.90;5.10;;;;;;;5.52;74.19;96240.98;110089;1249;59680;-68
2022/01/05 00:29:09;;;;;;;7.60;4.80;;;;;;;5.43;73.64;96242.02;110064;1247;59757;-67
2022/01/05 00:31:39;;;;;;;7.30;5.00;;;;;;;5.32;74.43;96245.30;110131;1247;72153;-67
2022/01/05 00:34:08;;;;;;;8.70;5.50;;;;;;;5.26;74.42;96244.42;110172;1247;68711;-72
2022/01/05 00:36:37;;;;;;;7.00;4.30;;;;;;;5.21;73.80;96246.60;110093;1250;68676;-70
2022/01/05 00:39:06;;;;;;;6.80;5.10;;;;;;;5.20;73.50;96247.38;110096;1247;59739;-68
2022/01/05 00:41:35;;;;;;;8.60;6.30;;;;;;;5.18;73.85;96245.13;110126;1250;59675;-69
2022/01/05 00:44:05;;;;;;;8.30;5.90;;;;;;;5.17;74.30;96245.58;110136;1247;71037;-69
2022/01/05 00:46:34;;;;;;;6.30;4.90;;;;;;;5.11;74.61;96246.61;110114;1247;67704;-69
2022/01/05 00:49:03;;;;;;;7.60;6.10;;;;;;;5.04;74.65;96249.02;110123;1247;68928;-70
2022/01/05 00:51:32;;;;;;;9.70;6.70;;;;;;;4.97;74.22;96247.27;110122;1249;59726;-69
2022/01/05 00:54:01;;;;;;;7.80;6.10;;;;;;;4.90;74.51;96247.02;110161;1248;59615;-67
2022/01/05 00:56:31;;;;;;;7.10;5.00;;;;;;;4.88;73.95;96246.87;110116;1247;71673;-68
2022/01/05 00:59:00;;;;;;;8.80;6.20;;;;;;;4.92;74.24;96246.40;110145;1247;68642;-70
2022/01/05 01:01:30;;;;;;;9.80;7.20;;;;;;;4.96;75.02;96252.17;110095;1249;69966;-68
2022/01/05 01:03:59;;;;;;;12.40;9.10;;;;;;;4.98;75.01;96251.52;110128;1247;59786;-69
2022/01/05 01:06:28;;;;;;;14.60;9.90;;;;;;;4.93;76.25;96250.33;110147;1247;59609;-69
2022/01/05 01:08:58;;;;;;;13.90;9.70;;;;;;;4.83;76.69;96253.71;110170;1247;71366;-69
2022/01/05 01:11:27;;;;;;;11.80;7.60;;;;;;;4.75;76.71;96257.91;110135;1248;68132;-68
2022/01/05 01:13:57;;;;;;;14.00;8.30;;;;;;;4.67;76.54;96255.56;110006;1250;69229;-72
2022/01/05 01:16:26;;;;;;;8.00;6.20;;;;;;;4.58;77.06;96258.15;110126;1247;59670;-71
2022/01/05 01:18:55;;;;;;;11.10;7.60;;;;;;;4.52;76.72;96264.61;109994;1250;59737;-68
2022/01/05 01:21:25;;;;;;;11.80;8.40;;;;;;;4.46;76.69;96265.06;110071;1248;71394;-68
2022/01/05 01:23:55;;;;;;;13.40;9.20;;;;;;;4.38;77.21;96265.58;110113;1250;68846;-67
2022/01/05 01:26:26;;;;;;;;;;;;;;;4.31;77.79;96259.83;110149;1249;68635;-67
2022/01/05 01:28:58;;;;;;;17.40;11.70;;;;;;;4.24;78.93;96264.58;110092;1248;59682;-67
2022/01/05 01:31:28;;;;;;;14.60;9.60;;;;;;;4.21;79.31;96259.09;110164;1249;59721;-67
2022/01/05 01:33:57;;;;;;;10.70;7.10;;;;;;;4.21;79.19;96261.67;110079;1249;71384;-69
2022/01/05 01:36:27;;;;;;;10.10;6.60;;;;;;;4.22;77.75;96263.70;110058;1249;68562;-69
2022/01/05 01:38:57;;;;;;;5.40;4.50;;;;;;;4.21;77.26;96263.95;110098;1249;68808;-68
2022/01/05 01:41:26;;;;;;;;;;;;;;;4.19;77.69;96259.43;110094;1249;59735;-67
2022/01/05 01:43:56;;;;;;;12.50;8.40;;;;;;;4.13;78.15;96255.14;110064;1249;59812;-68
2022/01/05 01:46:26;;;;;;;12.10;7.80;;;;;;;4.07;77.94;96252.23;110095;1249;71491;-67
2022/01/05 01:48:56;;;;;;;9.90;7.30;;;;;;;4.01;77.74;96249.36;110076;1248;68123;-67
2022/01/05 01:51:25;;;;;;;10.40;6.60;;;;;;;3.95;79.46;96247.70;110058;1247;69243;-67
2022/01/05 01:53:55;;;;;;;7.60;4.60;;;;;;;3.92;78.46;96243.09;110049;1250;59739;-68
2022/01/05 01:56:26;;;;;;;9.20;5.80;;;;;;;3.94;77.73;96251.89;110110;1248;59674;-67
2022/01/05 01:58:55;;;;;;;8.30;6.40;;;;;;;3.96;77.85;96251.61;110117;1247;71626;-67
2022/01/05 02:01:26;;;;;;;;;;;;;;;3.96;79.29;96247.80;110212;1247;68144;-67
2022/01/05 02:03:57;;;;;;;6.60;4.60;;;;;;;3.96;78.35;96249.03;110156;1247;69448;-66
2022/01/05 02:06:27;;;;;;;6.20;4.70;;;;;;;3.94;78.15;96247.40;110060;1249;59663;-67
2022/01/05 02:08:58;;;;;;;8.30;5.10;;;;;;;3.90;78.05;96245.42;110143;1249;59684;-67
2022/01/05 02:11:31;;;;;;;9.50;7.20;;;;;;;3.86;77.95;96243.30;109979;1250;71604;-67
2022/01/05 02:14:00;;;;;;;6.00;4.40;;;;;;;3.80;78.72;96242.98;110115;1248;68432;-66
2022/01/05 02:16:32;;;;;;;7.10;5.60;;;;;;;3.77;78.03;96241.79;110057;1247;69439;-67
2022/01/05 02:19:01;;;;;;;7.90;5.10;;;;;;;3.73;78.13;96245.14;110071;1249;59704;-69
2022/01/05 02:21:37;;;;;;;9.60;7.40;;;;;;;3.69;78.44;96245.05;110106;1250;59742;-69
2022/01/05 02:24:08;;;;;;;8.10;6.00;;;;;;;3.65;78.91;96244.66;110037;1249;70739;-72
2022/01/05 02:26:38;;;;;;;10.50;7.20;;;;;;;3.60;79.24;96247.54;110134;1250;68621;-69
2022/01/05 02:29:08;;;;;;;7.10;5.40;;;;;;;3.56;78.20;96250.16;110021;1249;69455;-70
2022/01/05 02:31:38;;;;;;;5.70;4.30;;;;;;;3.56;77.99;96250.89;110202;1248;59744;-68
2022/01/05 02:34:08;;;;;;;8.80;6.90;;;;;;;3.54;79.44;96250.67;110133;1247;59749;-68
2022/01/05 02:36:39;;;;;;;9.60;7.00;;;;;;;3.51;80.97;96252.56;110167;1248;70457;-69
2022/01/05 02:39:09;;;;;;;9.10;6.80;;;;;;;3.48;80.99;96248.79;110159;1247;67975;-69
2022/01/05 02:41:39;;;;;;;7.40;5.70;;;;;;;3.45;79.97;96244.66;110004;1247;68949;-71
2022/01/05 02:44:09;;;;;;;;;;;;;;;3.43;79.78;96240.33;110213;1247;59745;-70
2022/01/05 02:46:39;;;;;;;9.80;5.60;;;;;;;3.39;80.93;96232.16;110222;1250;59777;-68
2022/01/05 02:49:10;;;;;;;6.90;5.20;;;;;;;3.37;81.01;96232.60;110092;1248;71434;-68
2022/01/05 02:51:42;;;;;;;6.80;5.50;;;;;;;3.36;80.58;96231.48;110158;1247;68934;-71
2022/01/05 02:54:17;;;;;;;7.50;5.30;;;;;;;3.35;81.18;96229.82;110100;1250;69200;-68
2022/01/05 02:56:46;;;;;;;7.90;5.20;;;;;;;3.35;80.44;96232.94;110093;1250;59736;-68
2022/01/05 02:59:16;;;;;;;6.10;4.70;;;;;;;3.33;80.03;96230.80;110089;1247;59676;-69
2022/01/05 03:01:46;;;;;;;7.70;4.50;;;;;;;3.30;80.39;96230.98;110063;1249;71347;-71
2022/01/05 03:04:17;;;;;;;6.40;3.90;;;;;;;3.28;80.63;96232.81;110138;1249;68651;-68
2022/01/05 03:06:47;;;;;;;7.30;5.40;;;;;;;3.25;80.81;96234.20;110140;1248;69446;-69
2022/01/05 03:09:17;;;;;;;9.00;6.70;;;;;;;3.23;81.13;96233.64;110080;1249;59692;-69
2022/01/05 03:11:48;;;;;;;8.90;7.00;;;;;;;3.24;82.45;96230.67;110148;1247;59635;-68
2022/01/05 03:14:18;;;;;;;;;;;;;;;3.26;81.55;96229.66;110175;1247;70783;-69
2022/01/05 03:16:48;;;;;;;9.50;5.30;;;;;;;3.33;81.15;96239.42;110208;1247;68548;-69
2022/01/05 03:19:18;;;;;;;7.70;5.00;;;;;;;3.37;81.13;96241.42;110127;1247;69410;-69
2022/01/05 03:21:49;;;;;;;7.30;4.90;;;;;;;3.41;80.83;96246.63;110004;1250;59741;-70
2022/01/05 03:24:19;;;;;;;9.30;4.90;;;;;;;3.41;80.70;96245.61;110139;1250;59620;-69
2022/01/05 03:26:48;;;;;;;6.00;4.30;;;;;;;3.38;80.73;96237.38;110048;1250;72137;-69
2022/01/05 03:29:18;;;;;;;6.90;5.20;;;;;;;3.35;80.31;96235.19;110141;1250;67818;-69
2022/01/05 03:31:48;;;;;;;7.70;4.60;;;;;;;3.27;80.29;96238.91;109935;1248;68685;-70
2022/01/05 03:34:19;;;;;;;6.90;4.50;;;;;;;3.20;80.13;96244.17;110111;1248;59725;-68
2022/01/05 03:36:49;;;;;;;8.50;5.00;;;;;;;3.17;80.50;96236.14;110037;1250;59634;-69
2022/01/05 03:39:19;;;;;;;7.20;5.30;;;;;;;3.15;80.96;96241.39;109977;1250;71518;-71
2022/01/05 03:41:48;;;;;;;10.10;7.20;;;;;;;3.10;80.90;96245.48;110074;1249;68415;-70
2022/01/05 03:44:18;;;;;;;9.60;7.80;;;;;;;2.99;82.07;96245.65;110136;1249;68458;-69
2022/01/05 03:46:47;;;;;;;8.00;5.80;;;;;;;2.85;82.32;96242.17;110134;1249;59669;-72
2022/01/05 03:49:17;;;;;;;9.10;6.20;;;;;;;2.77;81.73;96239.90;109979;1247;59699;-71
2022/01/05 03:51:46;;;;;;;7.40;5.00;;;;;;;2.70;81.84;96240.82;110192;1249;71367;-68
2022/01/05 03:54:16;;;;;;;8.60;6.10;;;;;;;2.65;82.44;96244.23;110179;1249;66802;-70
2022/01/05 03:56:45;;;;;;;8.90;5.80;;;;;;;2.60;83.71;96249.38;110137;1249;68472;-70
2022/01/05 03:59:14;;;;;;;7.90;6.70;;;;;;;2.55;83.03;96250.16;110118;1247;59757;-71
2022/01/05 04:01:44;;;;;;;7.10;5.00;;;;;;;2.53;83.20;96256.14;110161;1250;59714;-70
2022/01/05 04:04:13;;;;;;;8.40;6.10;;;;;;;2.52;82.56;96249.66;110224;1250;71594;-69
2022/01/05 04:06:43;;;;;;;7.00;4.70;;;;;;;2.50;82.94;96248.20;110171;1249;67085;-69
2022/01/05 04:09:12;;;;;;;8.50;6.70;;;;;;;2.49;82.58;96250.70;110155;1250;69201;-69
2022/01/05 04:11:42;;;;;;;8.40;6.30;;;;;;;2.48;83.74;96240.60;110015;1250;59739;-67
2022/01/05 04:14:12;;;;;;;8.20;5.90;;;;;;;2.49;83.97;96241.23;110128;1249;59749;-68
2022/01/05 04:16:41;;;;;;;9.80;6.60;;;;;;;2.48;83.94;96240.65;110195;1247;71593;-68
2022/01/05 04:19:11;;;;;;;6.90;5.70;;;;;;;2.48;84.23;96242.48;110028;1250;68451;-68
2022/01/05 04:21:40;;;;;;;7.60;6.60;;;;;;;2.51;84.71;96244.01;110166;1249;68621;-67
2022/01/05 04:24:11;;;;;;;9.50;6.40;;;;;;;2.55;85.11;96241.73;109824;1250;59746;-70
2022/01/05 04:26:41;;;;;;;9.40;6.30;;;;;;;2.57;85.24;96242.98;110095;1250;59743;-70
2022/01/05 04:29:11;;;;;;;6.80;4.30;;;;;;;2.60;84.38;96243.02;110050;1250;71528;-70
2022/01/05 04:31:40;;;;;;;7.70;5.50;;;;;;;2.63;83.35;96248.00;110033;1250;68685;-69
2022/01/05 04:34:10;;;;;;;8.20;5.40;;;;;;;2.62;83.32;96249.11;110159;1247;69766;-70
2022/01/05 04:36:59;;;;;;;7.60;5.20;;;;;;;2.59;82.87;96241.70;110209;1247;59760;-67
2022/01/05 04:39:29;;;;;;;8.30;6.00;;;;;;;2.61;84.32;96244.02;110188;1247;59691;-69
2022/01/05 04:41:59;;;;;;;7.50;5.60;;;;;;;2.64;84.82;96243.28;110252;1247;71528;-69
2022/01/05 04:44:28;;;;;;;9.30;5.50;;;;;;;2.66;84.05;96248.12;110176;1246;67991;-67
2022/01/05 04:46:58;;;;;;;12.50;9.20;;;;;;;2.67;84.27;96247.04;110159;1248;69410;-69
2022/01/05 04:49:28;;;;;;;9.50;7.80;;;;;;;2.68;84.66;96249.42;109996;1250;59691;-67
2022/01/05 04:51:57;;;;;;;10.00;7.50;;;;;;;2.68;84.36;96257.48;109988;1250;59701;-68
2022/01/05 04:54:27;;;;;;;11.60;7.90;;;;;;;2.68;83.98;96254.93;110098;1247;71690;-68
2022/01/05 04:56:56;;;;;;;11.10;7.40;;;;;;;2.69;84.23;96251.05;110269;1247;68031;-67
2022/01/05 04:59:27;;;;;;;10.70;8.60;;;;;;;2.71;84.06;96248.17;110123;1247;68648;-72
2022/01/05 05:02:00;;;;;;;11.30;7.90;;;;;;;2.74;84.33;96249.40;110042;1250;60211;-69
2022/01/05 05:04:30;;;;;;;7.70;5.90;;;;;;;2.79;84.83;96248.59;109988;1249;60082;-68
2022/01/05 05:07:03;;;;;;;9.20;6.00;;;;;;;2.85;84.24;96242.88;110006;1249;71717;-70
2022/01/05 05:09:35;;;;;;;8.50;5.90;;;;;;;2.92;83.90;96242.64;109909;1250;69018;-70
2022/01/05 05:12:06;;;;;;;8.50;5.70;;;;;;;2.99;83.64;96251.96;110111;1250;68885;-70
2022/01/05 05:14:37;;;;;;;7.90;5.50;;;;;;;2.99;83.36;96262.98;110083;1249;59631;-72
2022/01/05 05:17:07;;;;;;;11.10;8.20;;;;;;;2.97;84.01;96257.11;109928;1250;59763;-72
2022/01/05 05:19:41;;;;;;;8.90;6.60;;;;;;;2.96;84.13;96258.58;109951;1247;71846;-71
2022/01/05 05:22:12;;;;;;;13.00;7.90;;;;;;;2.93;83.85;96261.35;110050;1248;68887;-72
2022/01/05 05:24:42;;;;;;;8.50;5.80;;;;;;;2.91;84.10;96260.56;109847;1250;68475;-70
2022/01/05 05:27:14;;;;;;;7.00;5.60;;;;;;;2.93;83.51;96263.90;109756;1247;59699;-69
2022/01/05 05:29:46;;;;;;;10.60;6.80;;;;;;;2.96;83.07;96260.30;110157;1248;59684;-72
2022/01/05 05:32:17;;;;;;;10.40;8.10;;;;;;;2.93;82.92;96258.38;109689;1252;71937;-71
2022/01/05 05:34:47;;;;;;;13.00;8.80;;;;;;;2.84;83.23;96261.89;110151;1247;68535;-73
2022/01/05 05:37:17;;;;;;;10.40;8.30;;;;;;;2.73;83.01;96262.20;110058;1250;68694;-72
2022/01/05 05:39:48;;;;;;;11.70;8.10;;;;;;;2.64;83.24;96262.05;109977;1250;59746;-70
2022/01/05 05:42:17;;;;;;;19.50;13.50;;;;;;;2.56;83.53;96265.75;110152;1247;59695;-70
2022/01/05 05:44:50;;;;;;;11.40;7.60;;;;;;;2.51;85.37;96272.11;110015;1250;70891;-71
2022/01/05 05:47:20;;;;;;;8.70;5.70;;;;;;;2.47;85.04;96273.85;110240;1250;67967;-71
2022/01/05 05:49:51;;;;;;;9.00;6.20;;;;;;;2.47;84.56;96271.59;110158;1247;69267;-70
2022/01/05 05:52:24;;;;;;;8.00;6.60;;;;;;;2.52;85.10;96265.83;110134;1248;59705;-70
2022/01/05 05:54:56;;;;;;;10.40;7.60;;;;;;;2.60;85.28;96266.09;110101;1250;59688;-71
2022/01/05 05:57:44;;;;;;;11.20;6.70;;;;;;;2.65;85.37;96269.21;109948;1250;71652;-71
2022/01/05 06:00:18;;;;;;;8.20;5.90;;;;;;;2.65;84.75;96265.07;109827;1249;68516;-70
2022/01/05 06:02:48;;;;;;;8.50;6.60;;;;;;;2.64;84.64;96264.95;109824;1251;67621;-70
2022/01/05 06:05:20;;;;;;;9.30;6.80;;;;;;;2.61;84.63;96263.39;110174;1247;59768;-70
2022/01/05 06:07:51;;;;;;;8.00;5.50;;;;;;;2.57;85.51;96257.46;110170;1250;60059;-68
2022/01/05 06:10:21;;;;;;;6.60;4.60;;;;;;;2.56;84.78;96262.34;110182;1248;71515;-69
2022/01/05 06:12:50;;;;;;;7.30;5.40;;;;;;;2.56;84.52;96267.52;110062;1250;68643;-67
2022/01/05 06:15:19;;;;;;;7.70;5.30;;;;;;;2.59;85.48;96273.14;110184;1247;68542;-68
2022/01/05 06:17:54;;;;;;;7.40;3.80;;;;;;;2.64;84.93;96274.09;110215;1248;59734;-70
2022/01/05 06:20:26;;;;;;;9.90;7.10;;;;;;;2.67;84.32;96272.36;109967;1250;59725;-68
2022/01/05 06:22:56;;;;;;;;;;;;;;;2.69;85.05;96274.83;110174;1247;70775;-68
2022/01/05 06:25:26;;;;;;;6.60;5.50;;;;;;;2.71;85.68;96273.50;110096;1249;68725;-70
2022/01/05 06:27:54;;;;;;;8.20;6.50;;;;;;;2.73;84.83;96271.45;110010;1249;69439;-71
2022/01/05 06:30:24;;;;;;;9.20;6.50;;;;;;;2.76;84.36;96277.29;110157;1247;59752;-71
2022/01/05 06:32:53;;;;;;;11.00;8.10;;;;;;;2.78;84.67;96278.04;110098;1247;59682;-71
2022/01/05 06:35:24;;;;;;;11.80;8.30;;;;;;;2.77;84.81;96277.43;110121;1247;73340;-72
2022/01/05 06:37:53;;;;;;;11.40;8.00;;;;;;;2.76;85.00;96283.48;110152;1248;69358;-69
2022/01/05 06:40:24;;;;;;;8.20;6.10;;;;;;;2.78;85.15;96290.07;110110;1249;69313;-71
2022/01/05 06:42:53;;;;;;;9.30;7.10;;;;;;;2.80;85.05;96290.96;110105;1249;59732;-69
2022/01/05 06:45:23;;;;;;;8.00;5.50;;;;;;;2.83;84.88;96290.52;110096;1247;59745;-69
2022/01/05 06:47:52;;;;;;;7.50;6.30;;;;;;;2.88;84.55;96290.89;110141;1248;70904;-70
2022/01/05 06:50:21;;;;;;;11.20;7.70;;;;;;;2.92;84.58;96286.84;110050;1247;68049;-69
2022/01/05 06:52:55;;;;;;;13.50;8.90;;;;;;;2.96;84.64;96283.52;110143;1249;69415;-71
2022/01/05 06:55:28;;;;;;;12.00;9.00;;;;;;;3.02;84.82;96286.06;109874;1250;59685;-70
2022/01/05 06:58:00;;;;;;;9.70;7.10;;;;;;;3.11;84.31;96288.83;109985;1250;59725;-73
2022/01/05 07:00:35;;;;;;;7.80;6.80;;;;;;;3.19;84.09;96288.83;109750;1252;71590;-70
2022/01/05 07:03:04;;;;;;;9.30;6.90;;;;;;;3.28;83.98;96284.29;110037;1247;67787;-68
2022/01/05 07:05:34;;;;;;;;;;;;;;;3.40;84.03;96288.08;110137;1247;69327;-69
2022/01/05 07:08:04;;;;;;;12.80;9.20;;;;;;;3.52;84.32;96279.67;110095;1249;59745;-68
2022/01/05 07:10:33;;;;;;;16.90;10.70;;;;;;;3.69;84.26;96279.38;110037;1250;59683;-67
2022/01/05 07:13:03;;;;;;;9.50;7.80;;;;;;;3.87;83.77;96280.45;110185;1247;70963;-70
2022/01/05 07:15:31;;;;;;;12.40;9.20;;;;;;;4.14;83.62;96284.05;110026;1249;68932;-69
2022/01/05 07:18:01;;;;;;;8.90;6.60;;;;;;;4.52;83.32;96285.13;110052;1249;67479;-69
2022/01/05 07:20:30;;;;;;;7.80;5.60;;;;;;;4.99;82.85;96286.33;110075;1247;59742;-70
2022/01/05 07:22:59;;;;;;;8.10;6.30;;;;;;;5.48;81.99;96280.46;110216;1247;59748;-70
2022/01/05 07:25:28;;;;;;;6.50;5.70;;;;;;;5.99;81.23;96280.84;110099;1247;71574;-69
2022/01/05 07:27:57;;;;;;;7.60;5.40;;;;;;;6.48;80.73;96280.92;110133;1247;67718;-70
2022/01/05 07:30:26;;;;;;;5.90;4.10;;;;;;;7.02;79.16;96287.42;110125;1247;69421;-68
2022/01/05 07:32:56;;;;;;;12.70;8.60;;;;;;;7.59;76.65;96281.96;110108;1247;59765;-68
2022/01/05 07:35:25;;;;;;;11.40;9.10;;;;;;;8.06;75.35;96283.07;110007;1250;59750;-68
2022/01/05 07:37:54;;;;;;;13.80;9.20;;;;;;;8.47;74.80;96282.71;109998;1250;72169;-67
2022/01/05 07:40:23;;;;;;;17.10;13.10;;;;;;;8.77;74.37;96274.34;110163;1249;67929;-68
2022/01/05 07:42:52;;;;;;;22.20;16.90;;;;;;;8.82;71.36;96276.37;110152;1248;69408;-67
2022/01/05 07:45:21;;;;;;;31.60;21.50;;;;;;;8.69;69.56;96277.42;110144;1249;59741;-67
2022/01/05 07:47:50;;;;;;;28.70;22.00;;;;;;;8.63;69.92;96274.77;110034;1250;59753;-67
2022/01/05 07:50:19;;;;;;;23.80;15.70;;;;;;;8.76;70.08;96269.56;109847;1250;71760;-67
2022/01/05 07:52:48;;;;;;;21.30;16.30;;;;;;;9.30;70.66;96267.21;110025;1248;68454;-68
2022/01/05 07:55:17;;;;;;;28.60;20.70;;;;;;;10.00;69.88;96273.19;109891;1248;69572;-67
2022/01/05 07:57:46;;;;;;;20.70;16.00;;;;;;;10.68;67.23;96269.98;110118;1247;59748;-68
2022/01/05 08:00:15;;;;;;;18.50;14.70;;;;;;;11.43;65.69;96265.28;110140;1249;59713;-70
2022/01/05 08:02:43;;;;;;;15.40;12.10;;;;;;;12.19;63.50;96258.23;110196;1247;72708;-68
2022/01/05 08:05:13;;;;;;;16.20;14.10;;;;;;;12.96;62.72;96264.74;110154;1248;67930;-68
2022/01/05 08:07:42;;;;;;;14.00;10.90;;;;;;;13.74;60.92;96261.88;110156;1247;69653;-69
2022/01/05 08:10:11;;;;;;;17.40;14.70;;;;;;;14.44;58.42;96259.96;110228;1247;59742;-67
2022/01/05 08:12:41;;;;;;;62.30;47.50;;;;;;;15.19;56.19;96261.34;110229;1247;59677;-68
2022/01/05 08:15:11;;;;;;;42.50;35.00;;;;;;;15.73;52.24;96257.67;110236;1247;71518;-67
2022/01/05 08:17:43;;;;;;;28.00;21.80;;;;;;;16.44;53.91;96263.30;110147;1248;67851;-70
2022/01/05 08:20:13;;;;;;;37.80;28.50;;;;;;;17.30;54.93;96263.33;110193;1247;68769;-69
2022/01/05 08:22:44;;;;;;;22.70;20.10;;;;;;;18.08;52.67;96260.52;110222;1247;59746;-74
2022/01/05 08:25:17;;;;;;;22.40;18.80;;;;;;;18.50;48.02;96261.60;110262;1247;59748;-71
2022/01/05 08:27:46;;;;;;;13.40;12.00;;;;;;;18.21;44.95;96260.23;109978;1247;70879;-74
2022/01/05 08:30:21;;;;;;;10.00;8.00;;;;;;;17.66;48.71;96257.00;110170;1247;68724;-71
2022/01/05 08:32:52;;;;;;;11.50;9.40;;;;;;;17.19;51.53;96267.23;110182;1247;69512;-68
2022/01/05 08:35:23;;;;;;;8.70;6.70;;;;;;;16.78;50.47;96268.20;110169;1247;59723;-69
2022/01/05 08:37:52;;;;;;;7.60;6.00;;;;;;;16.31;50.79;96271.27;110042;1248;59710;-70
2022/01/05 08:40:24;;;;;;;10.00;8.10;;;;;;;15.85;51.93;96273.36;110071;1249;71343;-71
2022/01/05 08:42:55;;;;;;;11.30;8.90;;;;;;;15.41;51.44;96278.93;110270;1247;68379;-71
2022/01/05 08:45:25;;;;;;;12.80;10.70;;;;;;;15.01;52.51;96282.98;110200;1247;68637;-71
2022/01/05 08:47:56;;;;;;;11.50;8.50;;;;;;;14.58;53.32;96276.33;110232;1247;59744;-69
2022/01/05 08:50:28;;;;;;;9.70;6.90;;;;;;;14.25;54.05;96274.63;110174;1247;59681;-68
2022/01/05 08:52:57;;;;;;;8.10;6.50;;;;;;;14.00;54.80;96274.43;110225;1248;71445;-68
2022/01/05 08:55:30;;;;;;;9.40;6.80;;;;;;;13.78;52.59;96269.88;110173;1248;69027;-67
2022/01/05 08:57:59;;;;;;;11.10;9.00;;;;;;;13.45;51.05;96268.19;110019;1250;67899;-69
2022/01/05 09:00:28;;;;;;;8.60;7.40;;;;;;;13.17;51.20;96260.38;110189;1248;59751;-69
2022/01/05 09:02:58;;;;;;;9.60;6.90;;;;;;;12.94;51.89;96254.30;110056;1250;59678;-71
2022/01/05 09:05:27;;;;;;;;;;;;;;;12.86;54.42;96258.61;110215;1249;71048;-69
2022/01/05 09:07:57;;;;;;;9.20;5.90;;;;;;;12.82;55.10;96261.63;110064;1249;67916;-70
2022/01/05 09:10:25;;;;;;;8.70;6.30;;;;;;;12.81;55.91;96259.48;110169;1249;69501;-68
2022/01/05 09:12:56;;;;;;;9.30;6.40;;;;;;;12.82;56.29;96259.59;109900;1250;233569;-67
2022/01/05 09:15:26;;;;;;;9.60;7.60;;;;;;;13.08;55.72;96258.82;110195;1250;59746;-68
2022/01/05 09:17:54;;;;;;;7.70;5.60;;;;;;;14.30;53.74;96258.58;110173;1250;70783;-69
2022/01/05 09:20:23;;;;;;;9.10;7.60;;;;;;;15.27;52.08;96257.08;109829;1251;68648;-71
2022/01/05 09:22:52;;;;;;;9.80;8.20;;;;;;;15.58;48.61;96245.93;110144;1250;69452;-67
2022/01/05 09:25:23;;;;;;;11.70;8.50;;;;;;;15.84;46.55;96240.96;110213;1247;59747;-68
2022/01/05 09:27:52;;;;;;;10.70;8.70;;;;;;;15.90;46.44;96240.66;110219;1247;59700;-69
2022/01/05 09:30:22;;;;;;;12.20;8.60;;;;;;;15.99;47.77;96247.50;110208;1247;69755;-70
2022/01/05 09:32:51;;;;;;;9.90;7.90;;;;;;;16.27;48.32;96240.67;110197;1248;68168;-68
2022/01/05 09:35:23;;;;;;;9.70;8.60;;;;;;;16.90;46.76;96237.77;110196;1245;68607;-67
2022/01/05 09:38:09;;;;;;;11.00;7.90;;;;;;;17.54;40.17;96238.10;110187;1247;59795;-69
2022/01/05 09:43:25;;;;;;;10.00;7.60;;;;;;;18.24;37.86;96227.48;110142;1249;71529;-69
2022/01/05 09:46:20;;;;;;;9.10;7.30;;;;;;;18.44;37.54;96228.66;110185;1250;67945;-68
2022/01/05 09:49:15;;;;;;;10.40;7.90;;;;;;;18.64;37.32;96230.52;109896;1250;69612;-70
2022/01/05 09:51:50;;;;;;;9.30;7.30;;;;;;;18.74;37.79;96226.80;110041;1250;60111;-68
2022/01/05 09:54:19;;;;;;;9.70;7.80;;;;;;;18.92;39.38;96228.85;109977;1250;59735;-68
2022/01/05 09:56:58;;;;;;;10.30;7.10;;;;;;;19.15;37.31;96228.77;110173;1248;70818;-71
2022/01/05 09:59:29;;;;;;;7.70;6.30;;;;;;;19.41;36.12;96222.93;110203;1250;67871;-70
2022/01/05 10:01:58;;;;;;;6.70;4.80;;;;;;;19.41;35.84;96223.51;110152;1249;70115;-68
2022/01/05 10:04:27;;;;;;;5.20;3.70;;;;;;;19.26;35.50;96220.84;110165;1249;59692;-68
2022/01/05 10:06:56;;;;;;;4.50;3.50;;;;;;;18.29;36.69;96214.38;110136;1250;59736;-70
2022/01/05 10:09:25;;;;;;;5.10;4.00;;;;;;;17.53;38.72;96211.67;109991;1250;72627;-70
2022/01/05 10:11:54;;;;;;;5.90;4.30;;;;;;;16.64;40.67;96208.57;110009;1249;67673;-68
2022/01/05 10:14:23;;;;;;;6.40;4.60;;;;;;;15.71;42.46;96201.19;109920;1250;70200;-69
2022/01/05 10:17:08;;;;;;;4.80;4.00;;;;;;;15.02;44.21;96203.73;110032;1250;59659;-68
2022/01/05 10:19:38;;;;;;;6.90;4.20;;;;;;;14.51;45.65;96201.86;110015;1250;59700;-68
2022/01/05 10:22:35;;;;;;;5.90;4.70;;;;;;;14.04;46.94;96198.48;109963;1250;70796;-68
2022/01/05 10:25:14;;;;;;;7.40;4.30;;;;;;;13.76;47.99;96192.98;109937;1250;68493;-69
2022/01/05 10:27:45;;;;;;;5.10;3.80;;;;;;;13.53;47.86;96189.14;109957;1250;68735;-68
2022/01/05 10:30:14;;;;;;;5.50;4.10;;;;;;;13.53;48.50;96182.48;109860;1250;59761;-69
2022/01/05 10:32:45;;;;;;;6.90;4.40;;;;;;;13.61;48.71;96181.48;110006;1250;59681;-71
2022/01/05 10:35:20;;;;;;;6.50;4.10;;;;;;;13.76;48.35;96183.71;110036;1250;71558;-67
2022/01/05 10:38:04;;;;;;;5.10;3.70;;;;;;;13.85;47.76;96184.20;110025;1250;68422;-73
2022/01/05 10:40:35;;;;;;;4.80;3.80;;;;;;;13.90;48.04;96179.16;109926;1250;69555;-70
2022/01/05 10:43:13;;;;;;;4.50;3.50;;;;;;;13.91;47.62;96177.65;109821;1250;59755;-71
2022/01/05 10:45:47;;;;;;;5.40;3.80;;;;;;;13.87;47.38;96176.45;109924;1250;59743;-71
2022/01/05 10:48:19;;;;;;;5.30;3.90;;;;;;;14.01;47.45;96172.90;109910;1250;71565;-69
2022/01/05 10:51:03;;;;;;;5.70;4.30;;;;;;;14.04;47.40;96171.02;110039;1250;68261;-69
2022/01/05 10:53:33;;;;;;;6.60;4.60;;;;;;;14.01;47.29;96164.33;110000;1250;69481;-69
2022/01/05 10:56:02;;;;;;;5.30;4.60;;;;;;;13.91;47.92;96164.80;110027;1250;59681;-67
2022/01/05 10:58:45;;;;;;;5.00;4.00;;;;;;;13.92;48.32;96166.11;110011;1250;59627;-71
2022/01/05 11:01:30;;;;;;;6.80;4.20;;;;;;;13.89;47.82;96161.58;109989;1250;72211;-69
2022/01/05 11:04:18;;;;;;;5.40;3.30;;;;;;;13.69;48.17;96159.11;109965;1250;68640;-69
2022/01/05 11:06:57;;;;;;;5.00;4.10;;;;;;;13.76;48.73;96156.48;109962;1249;68729;-70
2022/01/05 11:09:53;;;;;;;5.70;3.60;;;;;;;13.78;48.95;96155.06;109769;1250;59745;-74
2022/01/05 11:12:41;;;;;;;5.60;4.40;;;;;;;13.88;48.61;96154.13;109759;1253;59746;-74
2022/01/05 11:15:34;;;;;;;4.30;3.30;;;;;;;13.78;48.66;96148.57;109579;1250;72537;-70
2022/01/05 11:18:08;;;;;;;6.50;4.60;;;;;;;13.77;49.08;96146.70;110215;1248;67779;-70
2022/01/05 11:20:46;;;;;;;5.20;4.10;;;;;;;13.59;48.45;96143.38;109954;1250;69068;-73
2022/01/05 11:23:25;;;;;;;5.30;3.30;;;;;;;13.60;49.20;96137.81;110017;1247;60127;-69
2022/01/05 11:26:02;;;;;;;6.10;4.50;;;;;;;13.81;49.19;96144.39;109847;1250;59697;-73
2022/01/05 11:28:33;;;;;;;6.50;3.80;;;;;;;14.00;48.47;96139.55;109975;1250;70816;-69
2022/01/05 11:31:07;;;;;;;;;;;;;;;14.13;47.98;96140.41;109958;1250;67912;-73
2022/01/05 11:33:39;;;;;;;5.30;3.90;;;;;;;14.29;48.14;96140.64;109795;1251;69472;-74
2022/01/05 11:36:26;;;;;;;6.90;5.00;;;;;;;14.99;47.05;96135.66;110044;1250;59708;-73
2022/01/05 11:39:04;;;;;;;5.50;4.30;;;;;;;15.20;45.93;96126.14;109796;1250;59812;-74
2022/01/05 11:41:44;;;;;;;6.60;4.50;;;;;;;15.65;44.72;96119.08;109870;1250;71649;-71
2022/01/05 11:44:17;;;;;;;5.50;4.50;;;;;;;16.24;42.93;96124.94;109842;1249;69238;-74
2022/01/05 11:46:47;;;;;;;7.50;5.00;;;;;;;16.87;42.06;96118.15;110030;1247;70044;-68
2022/01/05 11:49:28;;;;;;;7.30;4.30;;;;;;;17.22;40.14;96116.02;110076;1249;59755;-67
2022/01/05 11:51:59;;;;;;;6.00;4.30;;;;;;;17.41;40.34;96110.44;109808;1251;59660;-77